sensor_id;sensor_type;location;lat;lon;timestamp;P1;durP1;ratioP1;P2;durP2;ratioP2
74614;SDS011;63121;51.458;-0.110;2023-03-14T00:02:25;13.93;;;2.65;;
74614;SDS011;63121;51.458;-0.110;2023-03-14T00:04:53;15.13;;;2.42;;
74614;SDS011;63121;51.458;-0.110;2023-03-14T00:07:19;12.25;;;1.98;;
74614;SDS011;63121;51.458;-0.110;2023-03-14T00:09:45;14.67;;;2.60;;
74614;SDS011;63121;51.458;-0.110;2023-03-14T00:12:10;13.30;;;2.23;;
74614;SDS011;63121;51.458;-0.110;2023-03-14T00:14:35;16.00;;;3.30;;
74614;SDS011;63121;51.458;-0.110;2023-03-14T00:17:01;13.10;;;2.83;;
74614;SDS011;63121;51.458;-0.110;2023-03-14T00:19:26;17.10;;;2.73;;
74614;SDS011;63121;51.458;-0.110;2023-03-14T00:21:51;11.73;;;2.37;;
74614;SDS011;63121;51.458;-0.110;2023-03-14T00:24:17;13.33;;;1.83;;
74614;SDS011;63121;51.458;-0.110;2023-03-14T00:26:42;11.20;;;2.00;;
74614;SDS011;63121;51.458;-0.110;2023-03-14T00:29:07;11.02;;;2.17;;
74614;SDS011;63121;51.458;-0.110;2023-03-14T00:31:33;16.53;;;1.97;;
74614;SDS011;63121;51.458;-0.110;2023-03-14T00:34:00;10.57;;;1.90;;
74614;SDS011;63121;51.458;-0.110;2023-03-14T00:36:25;11.33;;;1.90;;
74614;SDS011;63121;51.458;-0.110;2023-03-14T00:38:51;13.50;;;2.40;;
74614;SDS011;63121;51.458;-0.110;2023-03-14T00:41:17;15.95;;;2.30;;
74614;SDS011;63121;51.458;-0.110;2023-03-14T00:43:45;13.82;;;1.95;;
74614;SDS011;63121;51.458;-0.110;2023-03-14T00:46:11;10.98;;;1.90;;
74614;SDS011;63121;51.458;-0.110;2023-03-14T00:48:37;16.30;;;2.20;;
74614;SDS011;63121;51.458;-0.110;2023-03-14T00:51:03;12.77;;;1.67;;
74614;SDS011;63121;51.458;-0.110;2023-03-14T00:53:30;14.13;;;2.35;;
74614;SDS011;63121;51.458;-0.110;2023-03-14T00:55:55;13.27;;;1.85;;
74614;SDS011;63121;51.458;-0.110;2023-03-14T00:58:21;12.55;;;2.10;;
74614;SDS011;63121;51.458;-0.110;2023-03-14T01:00:47;12.80;;;1.60;;
74614;SDS011;63121;51.458;-0.110;2023-03-14T01:03:13;12.05;;;1.65;;
74614;SDS011;63121;51.458;-0.110;2023-03-14T01:05:39;14.73;;;2.38;;
74614;SDS011;63121;51.458;-0.110;2023-03-14T01:08:05;13.07;;;1.75;;
74614;SDS011;63121;51.458;-0.110;2023-03-14T01:10:31;9.60;;;1.85;;
74614;SDS011;63121;51.458;-0.110;2023-03-14T01:12:57;8.25;;;1.42;;
74614;SDS011;63121;51.458;-0.110;2023-03-14T01:15:23;12.25;;;1.83;;
74614;SDS011;63121;51.458;-0.110;2023-03-14T01:17:48;3.30;;;0.90;;
74614;SDS011;63121;51.458;-0.110;2023-03-14T01:20:14;5.07;;;0.90;;
74614;SDS011;63121;51.458;-0.110;2023-03-14T01:22:41;2.67;;;0.88;;
74614;SDS011;63121;51.458;-0.110;2023-03-14T01:25:08;2.22;;;0.70;;
74614;SDS011;63121;51.458;-0.110;2023-03-14T01:27:35;1.20;;;0.50;;
74614;SDS011;63121;51.458;-0.110;2023-03-14T01:30:00;4.13;;;0.63;;
74614;SDS011;63121;51.458;-0.110;2023-03-14T01:32:25;0.47;;;0.43;;
74614;SDS011;63121;51.458;-0.110;2023-03-14T01:34:51;0.90;;;0.50;;
74614;SDS011;63121;51.458;-0.110;2023-03-14T01:37:16;2.22;;;0.70;;
74614;SDS011;63121;51.458;-0.110;2023-03-14T01:39:42;0.95;;;0.50;;
74614;SDS011;63121;51.458;-0.110;2023-03-14T01:42:07;1.60;;;0.50;;
74614;SDS011;63121;51.458;-0.110;2023-03-14T01:47:21;1.30;;;0.60;;
74614;SDS011;63121;51.458;-0.110;2023-03-14T01:49:49;1.80;;;0.68;;
74614;SDS011;63121;51.458;-0.110;2023-03-14T01:52:36;0.60;;;0.52;;
74614;SDS011;63121;51.458;-0.110;2023-03-14T01:55:10;1.17;;;0.60;;
74614;SDS011;63121;51.458;-0.110;2023-03-14T01:57:43;1.05;;;0.57;;
74614;SDS011;63121;51.458;-0.110;2023-03-14T02:00:13;2.90;;;0.95;;
74614;SDS011;63121;51.458;-0.110;2023-03-14T02:02:41;1.33;;;0.60;;
74614;SDS011;63121;51.458;-0.110;2023-03-14T02:05:14;1.55;;;0.90;;
74614;SDS011;63121;51.458;-0.110;2023-03-14T02:07:55;1.52;;;0.80;;
74614;SDS011;63121;51.458;-0.110;2023-03-14T02:10:23;1.85;;;0.65;;
74614;SDS011;63121;51.458;-0.110;2023-03-14T02:12:52;1.23;;;0.60;;
74614;SDS011;63121;51.458;-0.110;2023-03-14T02:15:20;4.72;;;0.90;;
74614;SDS011;63121;51.458;-0.110;2023-03-14T02:17:45;1.98;;;0.70;;
74614;SDS011;63121;51.458;-0.110;2023-03-14T02:26:32;4.38;;;1.08;;
74614;SDS011;63121;51.458;-0.110;2023-03-14T02:29:03;3.70;;;1.13;;
74614;SDS011;63121;51.458;-0.110;2023-03-14T02:31:29;3.40;;;0.88;;
74614;SDS011;63121;51.458;-0.110;2023-03-14T02:33:54;4.85;;;1.30;;
74614;SDS011;63121;51.458;-0.110;2023-03-14T02:36:21;2.15;;;0.95;;
74614;SDS011;63121;51.458;-0.110;2023-03-14T02:41:36;1.92;;;0.93;;
74614;SDS011;63121;51.458;-0.110;2023-03-14T02:44:02;0.60;;;0.50;;
74614;SDS011;63121;51.458;-0.110;2023-03-14T02:46:27;2.78;;;0.82;;
74614;SDS011;63121;51.458;-0.110;2023-03-14T02:51:28;2.05;;;0.65;;
74614;SDS011;63121;51.458;-0.110;2023-03-14T02:53:54;5.70;;;0.70;;
74614;SDS011;63121;51.458;-0.110;2023-03-14T02:56:19;2.13;;;0.60;;
74614;SDS011;63121;51.458;-0.110;2023-03-14T02:58:45;1.75;;;0.50;;
74614;SDS011;63121;51.458;-0.110;2023-03-14T03:01:10;1.73;;;0.50;;
74614;SDS011;63121;51.458;-0.110;2023-03-14T03:03:36;7.90;;;0.60;;
74614;SDS011;63121;51.458;-0.110;2023-03-14T03:06:01;2.88;;;0.52;;
74614;SDS011;63121;51.458;-0.110;2023-03-14T03:08:27;3.30;;;0.85;;
74614;SDS011;63121;51.458;-0.110;2023-03-14T03:10:53;3.35;;;0.65;;
74614;SDS011;63121;51.458;-0.110;2023-03-14T03:13:19;0.95;;;0.40;;
74614;SDS011;63121;51.458;-0.110;2023-03-14T03:15:45;1.45;;;0.50;;
74614;SDS011;63121;51.458;-0.110;2023-03-14T03:18:10;2.28;;;0.55;;
74614;SDS011;63121;51.458;-0.110;2023-03-14T03:20:36;3.08;;;0.50;;
74614;SDS011;63121;51.458;-0.110;2023-03-14T03:23:02;1.00;;;0.57;;
74614;SDS011;63121;51.458;-0.110;2023-03-14T03:25:28;1.50;;;0.50;;
74614;SDS011;63121;51.458;-0.110;2023-03-14T03:27:54;2.08;;;0.68;;
74614;SDS011;63121;51.458;-0.110;2023-03-14T03:30:19;1.58;;;0.35;;
74614;SDS011;63121;51.458;-0.110;2023-03-14T03:32:45;0.70;;;0.60;;
74614;SDS011;63121;51.458;-0.110;2023-03-14T03:35:11;2.97;;;0.82;;
74614;SDS011;63121;51.458;-0.110;2023-03-14T03:37:36;1.80;;;0.57;;
74614;SDS011;63121;51.458;-0.110;2023-03-14T03:40:02;4.45;;;0.85;;
74614;SDS011;63121;51.458;-0.110;2023-03-14T03:42:30;0.82;;;0.40;;
74614;SDS011;63121;51.458;-0.110;2023-03-14T03:44:56;0.98;;;0.60;;
74614;SDS011;63121;51.458;-0.110;2023-03-14T03:47:21;1.50;;;0.70;;
74614;SDS011;63121;51.458;-0.110;2023-03-14T03:49:47;2.10;;;0.53;;
74614;SDS011;63121;51.458;-0.110;2023-03-14T03:52:12;4.13;;;0.47;;
74614;SDS011;63121;51.458;-0.110;2023-03-14T03:54:37;1.47;;;0.60;;
74614;SDS011;63121;51.458;-0.110;2023-03-14T03:57:03;0.90;;;0.50;;
74614;SDS011;63121;51.458;-0.110;2023-03-14T03:59:28;4.00;;;1.08;;
74614;SDS011;63121;51.458;-0.110;2023-03-14T04:01:54;1.20;;;0.47;;
74614;SDS011;63121;51.458;-0.110;2023-03-14T04:04:19;1.52;;;0.22;;
74614;SDS011;63121;51.458;-0.110;2023-03-14T04:06:44;1.65;;;0.50;;
74614;SDS011;63121;51.458;-0.110;2023-03-14T04:09:10;0.83;;;0.40;;
74614;SDS011;63121;51.458;-0.110;2023-03-14T04:11:36;1.77;;;0.50;;
74614;SDS011;63121;51.458;-0.110;2023-03-14T04:14:02;0.82;;;0.55;;
74614;SDS011;63121;51.458;-0.110;2023-03-14T04:16:28;2.10;;;0.68;;
74614;SDS011;63121;51.458;-0.110;2023-03-14T04:18:54;0.80;;;0.43;;
74614;SDS011;63121;51.458;-0.110;2023-03-14T04:21:19;1.03;;;0.40;;
74614;SDS011;63121;51.458;-0.110;2023-03-14T04:23:45;3.65;;;0.35;;
74614;SDS011;63121;51.458;-0.110;2023-03-14T04:26:10;1.47;;;0.33;;
74614;SDS011;63121;51.458;-0.110;2023-03-14T04:28:35;1.40;;;0.55;;
74614;SDS011;63121;51.458;-0.110;2023-03-14T04:31:12;2.45;;;0.57;;
74614;SDS011;63121;51.458;-0.110;2023-03-14T04:33:39;2.15;;;0.60;;
74614;SDS011;63121;51.458;-0.110;2023-03-14T04:36:05;2.50;;;0.43;;
74614;SDS011;63121;51.458;-0.110;2023-03-14T04:38:31;1.50;;;0.47;;
74614;SDS011;63121;51.458;-0.110;2023-03-14T04:40:57;3.10;;;0.50;;
74614;SDS011;63121;51.458;-0.110;2023-03-14T04:43:24;6.80;;;1.05;;
74614;SDS011;63121;51.458;-0.110;2023-03-14T04:45:50;1.13;;;0.38;;
74614;SDS011;63121;51.458;-0.110;2023-03-14T04:48:16;3.03;;;0.77;;
74614;SDS011;63121;51.458;-0.110;2023-03-14T04:50:42;3.17;;;0.67;;
74614;SDS011;63121;51.458;-0.110;2023-03-14T04:53:07;7.40;;;0.83;;
74614;SDS011;63121;51.458;-0.110;2023-03-14T04:55:32;4.03;;;0.90;;
74614;SDS011;63121;51.458;-0.110;2023-03-14T04:57:59;3.78;;;0.80;;
74614;SDS011;63121;51.458;-0.110;2023-03-14T05:00:25;1.13;;;0.60;;
74614;SDS011;63121;51.458;-0.110;2023-03-14T05:02:50;4.95;;;1.02;;
74614;SDS011;63121;51.458;-0.110;2023-03-14T05:05:16;11.10;;;1.17;;
74614;SDS011;63121;51.458;-0.110;2023-03-14T05:07:41;4.05;;;1.05;;
74614;SDS011;63121;51.458;-0.110;2023-03-14T05:10:07;2.28;;;0.50;;
74614;SDS011;63121;51.458;-0.110;2023-03-14T05:12:33;4.45;;;0.63;;
74614;SDS011;63121;51.458;-0.110;2023-03-14T05:14:58;3.67;;;0.80;;
74614;SDS011;63121;51.458;-0.110;2023-03-14T05:17:24;5.00;;;0.83;;
74614;SDS011;63121;51.458;-0.110;2023-03-14T05:19:49;2.60;;;0.73;;
74614;SDS011;63121;51.458;-0.110;2023-03-14T05:22:14;4.07;;;0.40;;
74614;SDS011;63121;51.458;-0.110;2023-03-14T05:24:40;3.03;;;0.70;;
74614;SDS011;63121;51.458;-0.110;2023-03-14T05:27:05;3.67;;;0.67;;
74614;SDS011;63121;51.458;-0.110;2023-03-14T05:29:31;4.68;;;1.23;;
74614;SDS011;63121;51.458;-0.110;2023-03-14T05:31:56;2.78;;;0.77;;
74614;SDS011;63121;51.458;-0.110;2023-03-14T05:34:21;3.43;;;0.60;;
74614;SDS011;63121;51.458;-0.110;2023-03-14T05:36:47;5.40;;;1.10;;
74614;SDS011;63121;51.458;-0.110;2023-03-14T05:39:12;2.07;;;0.73;;
74614;SDS011;63121;51.458;-0.110;2023-03-14T05:41:37;5.78;;;0.98;;
74614;SDS011;63121;51.458;-0.110;2023-03-14T05:44:03;4.37;;;0.90;;
74614;SDS011;63121;51.458;-0.110;2023-03-14T05:46:28;6.70;;;0.73;;
74614;SDS011;63121;51.458;-0.110;2023-03-14T05:48:55;3.17;;;0.85;;
74614;SDS011;63121;51.458;-0.110;2023-03-14T05:51:22;1.85;;;0.63;;
74614;SDS011;63121;51.458;-0.110;2023-03-14T05:53:47;3.42;;;0.52;;
74614;SDS011;63121;51.458;-0.110;2023-03-14T05:56:13;3.63;;;1.07;;
74614;SDS011;63121;51.458;-0.110;2023-03-14T05:58:38;4.10;;;0.90;;
74614;SDS011;63121;51.458;-0.110;2023-03-14T06:01:04;2.50;;;0.60;;
74614;SDS011;63121;51.458;-0.110;2023-03-14T06:03:31;5.53;;;0.95;;
74614;SDS011;63121;51.458;-0.110;2023-03-14T06:05:56;2.30;;;0.55;;
74614;SDS011;63121;51.458;-0.110;2023-03-14T06:08:22;1.80;;;0.70;;
74614;SDS011;63121;51.458;-0.110;2023-03-14T06:10:47;8.82;;;1.02;;
74614;SDS011;63121;51.458;-0.110;2023-03-14T06:13:13;2.93;;;0.83;;
74614;SDS011;63121;51.458;-0.110;2023-03-14T06:15:40;7.28;;;0.70;;
74614;SDS011;63121;51.458;-0.110;2023-03-14T06:18:05;4.60;;;0.65;;
74614;SDS011;63121;51.458;-0.110;2023-03-14T06:20:31;4.55;;;0.90;;
74614;SDS011;63121;51.458;-0.110;2023-03-14T06:22:58;3.38;;;0.70;;
74614;SDS011;63121;51.458;-0.110;2023-03-14T06:25:23;2.33;;;0.70;;
74614;SDS011;63121;51.458;-0.110;2023-03-14T06:27:48;2.67;;;0.43;;
74614;SDS011;63121;51.458;-0.110;2023-03-14T06:30:14;3.50;;;0.82;;
74614;SDS011;63121;51.458;-0.110;2023-03-14T06:32:39;3.55;;;0.77;;
74614;SDS011;63121;51.458;-0.110;2023-03-14T06:35:04;3.80;;;0.70;;
74614;SDS011;63121;51.458;-0.110;2023-03-14T06:37:30;4.60;;;1.10;;
74614;SDS011;63121;51.458;-0.110;2023-03-14T06:39:56;4.78;;;1.20;;
74614;SDS011;63121;51.458;-0.110;2023-03-14T06:42:21;2.87;;;0.77;;
74614;SDS011;63121;51.458;-0.110;2023-03-14T06:44:47;10.25;;;1.23;;
74614;SDS011;63121;51.458;-0.110;2023-03-14T06:47:12;5.05;;;1.13;;
74614;SDS011;63121;51.458;-0.110;2023-03-14T06:49:38;5.40;;;1.23;;
74614;SDS011;63121;51.458;-0.110;2023-03-14T06:52:03;3.38;;;0.80;;
74614;SDS011;63121;51.458;-0.110;2023-03-14T06:54:29;1.60;;;0.80;;
74614;SDS011;63121;51.458;-0.110;2023-03-14T06:56:54;2.15;;;0.85;;
74614;SDS011;63121;51.458;-0.110;2023-03-14T06:59:19;4.97;;;1.20;;
74614;SDS011;63121;51.458;-0.110;2023-03-14T07:01:45;5.47;;;1.10;;
74614;SDS011;63121;51.458;-0.110;2023-03-14T07:04:10;6.70;;;1.52;;
74614;SDS011;63121;51.458;-0.110;2023-03-14T07:06:35;3.30;;;1.03;;
74614;SDS011;63121;51.458;-0.110;2023-03-14T07:09:01;3.00;;;0.55;;
74614;SDS011;63121;51.458;-0.110;2023-03-14T07:11:26;8.63;;;1.67;;
74614;SDS011;63121;51.458;-0.110;2023-03-14T07:13:52;3.80;;;0.52;;
74614;SDS011;63121;51.458;-0.110;2023-03-14T07:16:17;5.25;;;1.13;;
74614;SDS011;63121;51.458;-0.110;2023-03-14T07:18:43;4.10;;;0.80;;
74614;SDS011;63121;51.458;-0.110;2023-03-14T07:21:08;4.63;;;1.10;;
74614;SDS011;63121;51.458;-0.110;2023-03-14T07:23:37;4.45;;;0.70;;
74614;SDS011;63121;51.458;-0.110;2023-03-14T07:26:03;2.40;;;0.60;;
74614;SDS011;63121;51.458;-0.110;2023-03-14T07:28:29;4.10;;;0.80;;
74614;SDS011;63121;51.458;-0.110;2023-03-14T07:30:54;3.47;;;0.90;;
74614;SDS011;63121;51.458;-0.110;2023-03-14T07:33:20;0.98;;;0.43;;
74614;SDS011;63121;51.458;-0.110;2023-03-14T07:35:47;2.70;;;0.57;;
74614;SDS011;63121;51.458;-0.110;2023-03-14T07:40:38;1.90;;;0.67;;
74614;SDS011;63121;51.458;-0.110;2023-03-14T07:43:03;3.37;;;0.70;;
74614;SDS011;63121;51.458;-0.110;2023-03-14T07:45:29;1.90;;;0.53;;
74614;SDS011;63121;51.458;-0.110;2023-03-14T07:47:54;2.22;;;0.60;;
74614;SDS011;63121;51.458;-0.110;2023-03-14T07:50:22;4.30;;;0.93;;
74614;SDS011;63121;51.458;-0.110;2023-03-14T07:52:49;3.83;;;0.68;;
74614;SDS011;63121;51.458;-0.110;2023-03-14T07:55:14;4.30;;;0.98;;
74614;SDS011;63121;51.458;-0.110;2023-03-14T07:57:39;3.78;;;0.95;;
74614;SDS011;63121;51.458;-0.110;2023-03-14T08:00:05;3.37;;;0.60;;
74614;SDS011;63121;51.458;-0.110;2023-03-14T08:02:31;2.05;;;0.85;;
74614;SDS011;63121;51.458;-0.110;2023-03-14T08:04:57;2.08;;;0.40;;
74614;SDS011;63121;51.458;-0.110;2023-03-14T08:07:22;1.43;;;0.53;;
74614;SDS011;63121;51.458;-0.110;2023-03-14T08:09:47;2.70;;;0.70;;
74614;SDS011;63121;51.458;-0.110;2023-03-14T08:12:13;3.33;;;0.70;;
74614;SDS011;63121;51.458;-0.110;2023-03-14T08:14:38;6.22;;;1.20;;
74614;SDS011;63121;51.458;-0.110;2023-03-14T08:17:04;0.73;;;0.53;;
74614;SDS011;63121;51.458;-0.110;2023-03-14T08:19:30;0.80;;;0.55;;
74614;SDS011;63121;51.458;-0.110;2023-03-14T08:21:55;1.33;;;0.53;;
74614;SDS011;63121;51.458;-0.110;2023-03-14T08:24:20;1.67;;;0.43;;
74614;SDS011;63121;51.458;-0.110;2023-03-14T08:26:46;2.38;;;0.70;;
74614;SDS011;63121;51.458;-0.110;2023-03-14T08:29:11;2.23;;;0.93;;
74614;SDS011;63121;51.458;-0.110;2023-03-14T08:31:37;1.83;;;0.80;;
74614;SDS011;63121;51.458;-0.110;2023-03-14T08:34:03;0.50;;;0.47;;
74614;SDS011;63121;51.458;-0.110;2023-03-14T08:36:28;2.72;;;0.75;;
74614;SDS011;63121;51.458;-0.110;2023-03-14T08:38:56;1.90;;;0.75;;
74614;SDS011;63121;51.458;-0.110;2023-03-14T08:41:21;2.28;;;0.68;;
74614;SDS011;63121;51.458;-0.110;2023-03-14T08:43:48;1.77;;;0.70;;
74614;SDS011;63121;51.458;-0.110;2023-03-14T08:46:13;0.97;;;0.50;;
74614;SDS011;63121;51.458;-0.110;2023-03-14T08:48:39;1.88;;;0.60;;
74614;SDS011;63121;51.458;-0.110;2023-03-14T08:51:08;0.73;;;0.40;;
74614;SDS011;63121;51.458;-0.110;2023-03-14T08:53:35;1.60;;;0.40;;
74614;SDS011;63121;51.458;-0.110;2023-03-14T08:56:01;4.60;;;1.08;;
74614;SDS011;63121;51.458;-0.110;2023-03-14T08:58:27;1.23;;;0.52;;
74614;SDS011;63121;51.458;-0.110;2023-03-14T09:00:52;0.53;;;0.43;;
74614;SDS011;63121;51.458;-0.110;2023-03-14T09:03:17;2.70;;;0.82;;
74614;SDS011;63121;51.458;-0.110;2023-03-14T09:05:43;0.95;;;0.47;;
74614;SDS011;63121;51.458;-0.110;2023-03-14T09:08:08;2.03;;;1.05;;
74614;SDS011;63121;51.458;-0.110;2023-03-14T09:10:33;1.57;;;0.70;;
74614;SDS011;63121;51.458;-0.110;2023-03-14T09:12:59;5.18;;;1.08;;
74614;SDS011;63121;51.458;-0.110;2023-03-14T09:15:25;1.73;;;0.70;;
74614;SDS011;63121;51.458;-0.110;2023-03-14T09:17:50;8.75;;;0.80;;
74614;SDS011;63121;51.458;-0.110;2023-03-14T09:20:16;3.00;;;0.90;;
74614;SDS011;63121;51.458;-0.110;2023-03-14T09:22:41;0.40;;;0.22;;
74614;SDS011;63121;51.458;-0.110;2023-03-14T09:25:07;4.18;;;0.80;;
74614;SDS011;63121;51.458;-0.110;2023-03-14T09:27:33;2.05;;;0.60;;
74614;SDS011;63121;51.458;-0.110;2023-03-14T09:29:59;1.63;;;0.73;;
74614;SDS011;63121;51.458;-0.110;2023-03-14T09:32:24;0.67;;;0.50;;
74614;SDS011;63121;51.458;-0.110;2023-03-14T09:34:49;0.52;;;0.28;;
74614;SDS011;63121;51.458;-0.110;2023-03-14T09:37:15;3.70;;;1.10;;
74614;SDS011;63121;51.458;-0.110;2023-03-14T09:39:44;1.42;;;0.65;;
74614;SDS011;63121;51.458;-0.110;2023-03-14T09:42:13;5.65;;;0.73;;
74614;SDS011;63121;51.458;-0.110;2023-03-14T09:44:54;2.63;;;0.95;;
74614;SDS011;63121;51.458;-0.110;2023-03-14T09:47:22;2.25;;;0.63;;
74614;SDS011;63121;51.458;-0.110;2023-03-14T09:49:48;7.45;;;1.00;;
74614;SDS011;63121;51.458;-0.110;2023-03-14T09:52:15;1.75;;;0.68;;
74614;SDS011;63121;51.458;-0.110;2023-03-14T09:54:55;3.38;;;0.95;;
74614;SDS011;63121;51.458;-0.110;2023-03-14T09:57:25;5.18;;;0.93;;
74614;SDS011;63121;51.458;-0.110;2023-03-14T09:59:54;3.97;;;1.00;;
74614;SDS011;63121;51.458;-0.110;2023-03-14T10:02:24;3.45;;;0.90;;
74614;SDS011;63121;51.458;-0.110;2023-03-14T10:04:53;5.68;;;1.23;;
74614;SDS011;63121;51.458;-0.110;2023-03-14T10:07:27;6.70;;;1.40;;
74614;SDS011;63121;51.458;-0.110;2023-03-14T10:09:54;1.35;;;0.50;;
74614;SDS011;63121;51.458;-0.110;2023-03-14T10:12:19;3.92;;;1.05;;
74614;SDS011;63121;51.458;-0.110;2023-03-14T10:14:56;0.65;;;0.55;;
74614;SDS011;63121;51.458;-0.110;2023-03-14T10:17:21;2.73;;;0.80;;
74614;SDS011;63121;51.458;-0.110;2023-03-14T10:22:19;6.13;;;1.38;;
74614;SDS011;63121;51.458;-0.110;2023-03-14T10:25:01;8.20;;;1.52;;
74614;SDS011;63121;51.458;-0.110;2023-03-14T10:27:33;4.07;;;0.90;;
74614;SDS011;63121;51.458;-0.110;2023-03-14T10:30:01;2.58;;;0.82;;
74614;SDS011;63121;51.458;-0.110;2023-03-14T10:32:38;0.40;;;0.40;;
74614;SDS011;63121;51.458;-0.110;2023-03-14T10:37:47;2.10;;;0.73;;
74614;SDS011;63121;51.458;-0.110;2023-03-14T10:40:26;0.65;;;0.30;;
74614;SDS011;63121;51.458;-0.110;2023-03-14T10:42:57;3.20;;;1.20;;
74614;SDS011;63121;51.458;-0.110;2023-03-14T10:48:07;4.80;;;0.93;;
74614;SDS011;63121;51.458;-0.110;2023-03-14T10:50:59;2.80;;;0.77;;
74614;SDS011;63121;51.458;-0.110;2023-03-14T10:53:39;8.65;;;1.38;;
74614;SDS011;63121;51.458;-0.110;2023-03-14T10:56:07;1.40;;;0.68;;
74614;SDS011;63121;51.458;-0.110;2023-03-14T10:58:33;2.92;;;0.98;;
74614;SDS011;63121;51.458;-0.110;2023-03-14T11:01:21;6.18;;;1.10;;
74614;SDS011;63121;51.458;-0.110;2023-03-14T11:04:10;4.25;;;1.10;;
74614;SDS011;63121;51.458;-0.110;2023-03-14T11:09:21;7.82;;;1.33;;
74614;SDS011;63121;51.458;-0.110;2023-03-14T11:11:50;6.97;;;1.42;;
74614;SDS011;63121;51.458;-0.110;2023-03-14T11:14:29;4.57;;;1.00;;
74614;SDS011;63121;51.458;-0.110;2023-03-14T11:20:01;3.17;;;0.77;;
74614;SDS011;63121;51.458;-0.110;2023-03-14T11:22:45;8.30;;;1.27;;
74614;SDS011;63121;51.458;-0.110;2023-03-14T11:25:26;7.28;;;1.35;;
74614;SDS011;63121;51.458;-0.110;2023-03-14T11:30:49;10.35;;;1.42;;
74614;SDS011;63121;51.458;-0.110;2023-03-14T11:33:18;3.25;;;1.00;;
74614;SDS011;63121;51.458;-0.110;2023-03-14T11:35:47;6.50;;;0.90;;
74614;SDS011;63121;51.458;-0.110;2023-03-14T11:38:29;5.78;;;1.13;;
74614;SDS011;63121;51.458;-0.110;2023-03-14T11:41:12;2.67;;;0.90;;
74614;SDS011;63121;51.458;-0.110;2023-03-14T11:43:43;8.43;;;1.80;;
74614;SDS011;63121;51.458;-0.110;2023-03-14T11:51:39;6.35;;;1.20;;
74614;SDS011;63121;51.458;-0.110;2023-03-14T11:56:59;8.68;;;1.30;;
74614;SDS011;63121;51.458;-0.110;2023-03-14T12:02:16;4.85;;;1.10;;
74614;SDS011;63121;51.458;-0.110;2023-03-14T12:07:28;5.00;;;0.88;;
74614;SDS011;63121;51.458;-0.110;2023-03-14T12:10:01;4.13;;;1.15;;
74614;SDS011;63121;51.458;-0.110;2023-03-14T12:12:27;6.65;;;1.02;;
74614;SDS011;63121;51.458;-0.110;2023-03-14T12:14:59;6.10;;;1.02;;
74614;SDS011;63121;51.458;-0.110;2023-03-14T12:17:36;2.03;;;0.80;;
74614;SDS011;63121;51.458;-0.110;2023-03-14T12:22:43;8.63;;;1.70;;
74614;SDS011;63121;51.458;-0.110;2023-03-14T12:25:23;11.63;;;1.70;;
74614;SDS011;63121;51.458;-0.110;2023-03-14T12:33:37;2.88;;;0.90;;
74614;SDS011;63121;51.458;-0.110;2023-03-14T12:35:44;9.05;;;1.65;;
74614;SDS011;63121;51.458;-0.110;2023-03-14T12:40:52;10.05;;;2.25;;
74614;SDS011;63121;51.458;-0.110;2023-03-14T12:43:27;22.85;;;2.97;;
74614;SDS011;63121;51.458;-0.110;2023-03-14T12:48:42;4.78;;;0.90;;
74614;SDS011;63121;51.458;-0.110;2023-03-14T12:51:13;1.27;;;0.50;;
74614;SDS011;63121;51.458;-0.110;2023-03-14T12:53:48;5.25;;;1.60;;
74614;SDS011;63121;51.458;-0.110;2023-03-14T13:00:13;17.63;;;2.53;;
74614;SDS011;63121;51.458;-0.110;2023-03-14T13:02:28;6.88;;;1.35;;
74614;SDS011;63121;51.458;-0.110;2023-03-14T13:05:09;8.38;;;1.77;;
74614;SDS011;63121;51.458;-0.110;2023-03-14T13:12:47;6.60;;;1.00;;
74614;SDS011;63121;51.458;-0.110;2023-03-14T13:15:27;1.83;;;0.50;;
74614;SDS011;63121;51.458;-0.110;2023-03-14T13:17:54;1.30;;;0.47;;
74614;SDS011;63121;51.458;-0.110;2023-03-14T13:20:28;1.95;;;0.68;;
74614;SDS011;63121;51.458;-0.110;2023-03-14T13:22:57;3.53;;;0.80;;
74614;SDS011;63121;51.458;-0.110;2023-03-14T13:25:22;5.88;;;0.85;;
74614;SDS011;63121;51.458;-0.110;2023-03-14T13:27:48;3.08;;;0.80;;
74614;SDS011;63121;51.458;-0.110;2023-03-14T13:32:52;6.72;;;1.05;;
74614;SDS011;63121;51.458;-0.110;2023-03-14T13:37:45;2.90;;;0.70;;
74614;SDS011;63121;51.458;-0.110;2023-03-14T13:40:23;3.90;;;0.90;;
74614;SDS011;63121;51.458;-0.110;2023-03-14T13:42:59;7.82;;;1.10;;
74614;SDS011;63121;51.458;-0.110;2023-03-14T13:45:44;2.65;;;1.00;;
74614;SDS011;63121;51.458;-0.110;2023-03-14T13:48:13;3.60;;;0.73;;
74614;SDS011;63121;51.458;-0.110;2023-03-14T13:53:10;4.22;;;0.85;;
74614;SDS011;63121;51.458;-0.110;2023-03-14T13:55:37;2.72;;;0.90;;
74614;SDS011;63121;51.458;-0.110;2023-03-14T13:58:02;2.03;;;0.80;;
74614;SDS011;63121;51.458;-0.110;2023-03-14T14:00:27;5.95;;;0.95;;
74614;SDS011;63121;51.458;-0.110;2023-03-14T14:02:54;2.53;;;0.70;;
74614;SDS011;63121;51.458;-0.110;2023-03-14T14:05:23;3.65;;;0.90;;
74614;SDS011;63121;51.458;-0.110;2023-03-14T14:07:52;2.83;;;0.80;;
74614;SDS011;63121;51.458;-0.110;2023-03-14T14:10:17;5.60;;;0.60;;
74614;SDS011;63121;51.458;-0.110;2023-03-14T14:15:44;6.15;;;1.02;;
74614;SDS011;63121;51.458;-0.110;2023-03-14T14:18:13;3.50;;;0.73;;
74614;SDS011;63121;51.458;-0.110;2023-03-14T14:20:43;2.10;;;0.63;;
74614;SDS011;63121;51.458;-0.110;2023-03-14T14:23:11;3.65;;;1.00;;
74614;SDS011;63121;51.458;-0.110;2023-03-14T14:25:39;4.50;;;0.90;;
74614;SDS011;63121;51.458;-0.110;2023-03-14T14:38:57;4.82;;;0.95;;
74614;SDS011;63121;51.458;-0.110;2023-03-14T14:41:32;5.28;;;1.05;;
74614;SDS011;63121;51.458;-0.110;2023-03-14T14:44:00;2.28;;;0.88;;
74614;SDS011;63121;51.458;-0.110;2023-03-14T14:46:28;3.28;;;0.80;;
74614;SDS011;63121;51.458;-0.110;2023-03-14T14:48:57;4.53;;;1.25;;
74614;SDS011;63121;51.458;-0.110;2023-03-14T14:51:30;3.95;;;1.02;;
74614;SDS011;63121;51.458;-0.110;2023-03-14T14:54:02;3.08;;;0.90;;
74614;SDS011;63121;51.458;-0.110;2023-03-14T14:56:38;3.05;;;0.80;;
74614;SDS011;63121;51.458;-0.110;2023-03-14T14:59:04;3.33;;;0.95;;
74614;SDS011;63121;51.458;-0.110;2023-03-14T15:01:36;5.25;;;1.10;;
74614;SDS011;63121;51.458;-0.110;2023-03-14T15:04:04;3.85;;;0.90;;
74614;SDS011;63121;51.458;-0.110;2023-03-14T15:06:37;3.65;;;0.82;;
74614;SDS011;63121;51.458;-0.110;2023-03-14T15:09:02;5.47;;;0.88;;
74614;SDS011;63121;51.458;-0.110;2023-03-14T15:11:28;3.88;;;1.02;;
74614;SDS011;63121;51.458;-0.110;2023-03-14T15:13:53;4.93;;;0.50;;
74614;SDS011;63121;51.458;-0.110;2023-03-14T15:16:20;2.83;;;0.70;;
74614;SDS011;63121;51.458;-0.110;2023-03-14T15:18:49;4.97;;;0.95;;
74614;SDS011;63121;51.458;-0.110;2023-03-14T15:21:19;5.47;;;1.00;;
74614;SDS011;63121;51.458;-0.110;2023-03-14T15:23:44;3.97;;;0.90;;
74614;SDS011;63121;51.458;-0.110;2023-03-14T15:26:13;2.20;;;0.70;;
74614;SDS011;63121;51.458;-0.110;2023-03-14T15:28:41;2.33;;;0.73;;
74614;SDS011;63121;51.458;-0.110;2023-03-14T15:31:10;5.05;;;1.05;;
74614;SDS011;63121;51.458;-0.110;2023-03-14T15:33:37;3.92;;;0.85;;
74614;SDS011;63121;51.458;-0.110;2023-03-14T15:36:03;5.50;;;1.13;;
74614;SDS011;63121;51.458;-0.110;2023-03-14T15:38:30;5.45;;;0.80;;
74614;SDS011;63121;51.458;-0.110;2023-03-14T15:40:56;5.28;;;1.25;;
74614;SDS011;63121;51.458;-0.110;2023-03-14T15:43:21;5.40;;;1.17;;
74614;SDS011;63121;51.458;-0.110;2023-03-14T15:45:47;5.03;;;0.90;;
74614;SDS011;63121;51.458;-0.110;2023-03-14T15:48:16;4.70;;;0.80;;
74614;SDS011;63121;51.458;-0.110;2023-03-14T15:50:43;4.65;;;0.88;;
74614;SDS011;63121;51.458;-0.110;2023-03-14T15:53:09;4.43;;;0.85;;
74614;SDS011;63121;51.458;-0.110;2023-03-14T15:55:35;4.72;;;1.02;;
74614;SDS011;63121;51.458;-0.110;2023-03-14T15:58:01;1.60;;;0.50;;
74614;SDS011;63121;51.458;-0.110;2023-03-14T16:00:27;3.22;;;0.75;;
74614;SDS011;63121;51.458;-0.110;2023-03-14T16:02:53;4.50;;;1.00;;
74614;SDS011;63121;51.458;-0.110;2023-03-14T16:05:19;5.03;;;0.80;;
74614;SDS011;63121;51.458;-0.110;2023-03-14T16:07:44;4.68;;;1.00;;